Langenburg, Canada
Current Conditions -  °F | °C
As of 1:00 AM on Sunday 26 Oct 2014 (Local Time) from CYQV Reporting Station
Broken Clouds Broken Clouds  
Wind Chill: 29°   Ceiling: 16000
Heat Index: 36°   Visibility: 9mi
Dew Point: 28°   Wind: 8mph
Humidity: 75%   Direction: 120°ESE
Pressure: 29.83"   Gusts: NA
Location:  50.83°N, 101.7°W
Report Text: CYQV 260700Z AUTO 12007KT 9SM BKN160 02/M02 A2983 RMK SLP117
Loading
Personal Weather Stations






























Interactive Weather Map
Tropical Storm Tracking
New forecast layout! Learn more

10-Day Weather Forecast

Advertisements
Track Severe Weather on mobile